createdAt,value
2022-09-27T00:00:10.269Z,54.61
2022-09-27T00:02:37.222Z,53.44
2022-09-27T00:05:04.360Z,54.47
2022-09-27T00:07:31.256Z,57.00
2022-09-27T00:09:58.172Z,57.73
2022-09-27T00:12:25.121Z,57.69
2022-09-27T00:14:52.010Z,57.33
2022-09-27T00:17:18.872Z,55.09
2022-09-27T00:19:45.798Z,55.83
2022-09-27T00:22:12.723Z,53.36
2022-09-27T00:24:39.597Z,52.60
2022-09-27T00:27:06.495Z,54.54
2022-09-27T00:29:33.429Z,54.85
2022-09-27T00:32:00.592Z,53.74
2022-09-27T00:34:27.498Z,54.89
2022-09-27T00:36:55.654Z,57.15
2022-09-27T00:39:22.630Z,56.70
2022-09-27T00:41:49.715Z,57.14
2022-09-27T00:44:25.683Z,57.12
2022-09-27T00:47:27.739Z,57.03
2022-09-27T00:50:02.143Z,56.31
2022-09-27T00:52:46.971Z,57.50
2022-09-27T00:55:18.638Z,55.84
2022-09-27T00:57:46.536Z,54.30
2022-09-27T01:00:15.456Z,55.44
2022-09-27T01:02:48.837Z,53.82
2022-09-27T01:05:17.632Z,56.62
2022-09-27T01:07:44.501Z,56.72
2022-09-27T01:10:11.783Z,57.08
2022-09-27T01:13:02.898Z,57.66
2022-09-27T01:15:40.858Z,57.64
2022-09-27T01:18:40.274Z,57.20
2022-09-27T01:21:14.015Z,53.47
2022-09-27T01:23:59.229Z,57.45
2022-09-27T01:26:53.401Z,54.33
2022-09-27T01:29:20.262Z,53.87
2022-09-27T01:32:06.707Z,55.34
2022-09-27T01:34:47.268Z,54.91
2022-09-27T01:37:52.766Z,55.71
2022-09-27T01:40:38.530Z,55.90
2022-09-27T01:43:20.559Z,55.55
2022-09-27T01:45:58.926Z,56.13
2022-09-27T01:48:31.341Z,54.54
2022-09-27T01:51:16.283Z,56.37
2022-09-27T01:53:45.276Z,55.65
2022-09-27T01:56:25.934Z,57.14
2022-09-27T01:59:25.800Z,57.62
2022-09-27T02:01:53.383Z,57.14
2022-09-27T02:04:24.515Z,56.95
2022-09-27T02:06:55.837Z,57.77
2022-09-27T02:09:54.356Z,55.82
2022-09-27T02:12:25.559Z,58.02
2022-09-27T02:15:00.415Z,56.96
2022-09-27T02:17:44.398Z,57.90
2022-09-27T02:20:30.218Z,55.97
2022-09-27T02:23:11.322Z,58.66
2022-09-27T02:25:51.610Z,59.92
2022-09-27T02:28:31.026Z,58.47
2022-09-27T02:30:58.279Z,57.90
2022-09-27T02:33:34.959Z,59.29
2022-09-27T02:36:02.064Z,60.66
2022-09-27T02:38:29.256Z,56.58
2022-09-27T02:40:56.289Z,56.75
2022-09-27T02:43:25.034Z,56.02
2022-09-27T02:46:13.449Z,56.07
2022-09-27T02:48:59.579Z,56.39
2022-09-27T02:51:57.422Z,57.71
2022-09-27T02:55:00.799Z,60.25
2022-09-27T02:57:55.771Z,61.61
2022-09-27T03:00:26.754Z,61.25
2022-09-27T03:03:05.717Z,60.49
2022-09-27T03:05:40.269Z,61.39
2022-09-27T03:08:08.030Z,60.93
2022-09-27T03:10:34.928Z,60.00
2022-09-27T03:13:02.089Z,59.14
2022-09-27T03:15:29.042Z,59.76
2022-09-27T03:17:56.032Z,59.82
2022-09-27T03:20:22.895Z,60.76
2022-09-27T03:22:49.798Z,60.37
2022-09-27T03:25:16.824Z,59.39
2022-09-27T03:27:44.748Z,62.10
2022-09-27T03:30:13.499Z,63.64
2022-09-27T03:32:44.754Z,62.33
2022-09-27T03:35:12.626Z,63.44
2022-09-27T03:37:41.203Z,62.58
2022-09-27T03:40:09.315Z,62.11
2022-09-27T03:42:36.251Z,64.41
2022-09-27T03:45:03.214Z,63.06
2022-09-27T03:47:30.130Z,61.36
2022-09-27T03:49:56.988Z,62.11
2022-09-27T03:52:23.856Z,60.86
2022-09-27T03:54:51.260Z,61.46
2022-09-27T03:57:18.154Z,60.94
2022-09-27T03:59:45.035Z,61.39
2022-09-27T04:02:12.071Z,62.12
2022-09-27T04:04:39.326Z,61.36
2022-09-27T04:07:06.217Z,64.08
2022-09-27T04:09:33.155Z,65.82
2022-09-27T04:12:00.114Z,64.51
2022-09-27T04:14:27.045Z,63.24
2022-09-27T04:16:53.983Z,63.74
2022-09-27T04:19:20.904Z,61.63
2022-09-27T04:21:47.800Z,63.66
2022-09-27T04:24:14.687Z,61.64
2022-09-27T04:26:41.576Z,65.87
2022-09-27T04:29:09.828Z,62.26
2022-09-27T04:31:38.152Z,63.75
2022-09-27T04:34:05.599Z,65.69
2022-09-27T04:36:33.110Z,63.11
2022-09-27T04:39:02.907Z,60.83
2022-09-27T04:41:30.220Z,62.54
2022-09-27T04:43:59.650Z,64.93
2022-09-27T04:46:27.358Z,63.28
2022-09-27T04:48:54.308Z,63.39
2022-09-27T04:51:21.219Z,60.65
2022-09-27T04:53:48.184Z,59.12
2022-09-27T04:56:16.113Z,60.24
2022-09-27T04:58:43.335Z,60.70
2022-09-27T05:01:10.365Z,60.15
2022-09-27T05:03:37.844Z,59.84
2022-09-27T05:06:04.894Z,63.40
2022-09-27T05:08:31.845Z,66.97
2022-09-27T05:10:58.800Z,66.06
2022-09-27T05:13:25.673Z,69.61
2022-09-27T05:15:53.028Z,71.10
2022-09-27T05:18:19.949Z,68.11
2022-09-27T05:20:46.917Z,69.41
2022-09-27T05:23:13.828Z,68.72
2022-09-27T05:25:40.756Z,71.05
2022-09-27T05:28:09.044Z,66.06
2022-09-27T05:30:36.925Z,64.16
2022-09-27T05:33:04.271Z,70.77
2022-09-27T05:35:31.922Z,73.83
2022-09-27T05:38:00.553Z,70.94
2022-09-27T05:40:44.928Z,71.02
2022-09-27T05:43:12.213Z,72.02
2022-09-27T05:45:39.201Z,70.73
2022-09-27T05:48:06.231Z,72.16
2022-09-27T05:50:33.137Z,69.42
2022-09-27T05:53:00.103Z,70.14
2022-09-27T05:55:27.167Z,73.43
2022-09-27T05:57:57.295Z,75.13
2022-09-27T06:00:26.017Z,75.28
2022-09-27T06:02:57.401Z,72.05
2022-09-27T06:05:25.115Z,72.03
2022-09-27T06:07:52.946Z,70.39
2022-09-27T06:10:21.012Z,72.17
2022-09-27T06:12:47.907Z,71.50
2022-09-27T06:15:14.859Z,71.54
2022-09-27T06:17:41.857Z,80.29
2022-09-27T06:20:09.960Z,76.74
2022-09-27T06:22:37.436Z,75.34
2022-09-27T06:25:05.074Z,74.60
2022-09-27T06:27:32.363Z,74.57
2022-09-27T06:29:59.245Z,73.36
2022-09-27T06:32:26.270Z,76.86
2022-09-27T06:34:53.204Z,78.17
2022-09-27T06:37:20.199Z,74.58
2022-09-27T06:39:49.244Z,74.63
2022-09-27T06:42:18.813Z,72.40
2022-09-27T06:44:50.482Z,73.03
2022-09-27T06:47:18.026Z,70.69
2022-09-27T06:49:44.954Z,72.59
2022-09-27T06:52:11.858Z,74.78
2022-09-27T06:54:38.799Z,74.35
2022-09-27T06:57:05.987Z,72.37
2022-09-27T06:59:51.754Z,71.13
2022-09-27T07:02:19.109Z,71.39
2022-09-27T07:04:46.039Z,74.00
2022-09-27T07:07:13.693Z,75.60
2022-09-27T07:09:40.903Z,78.00
2022-09-27T07:12:07.907Z,78.57
2022-09-27T07:14:35.443Z,77.02
2022-09-27T07:17:02.508Z,76.75
2022-09-27T07:19:29.406Z,73.82
2022-09-27T07:21:56.281Z,73.94
2022-09-27T07:24:23.224Z,76.56
2022-09-27T07:26:50.193Z,75.29
2022-09-27T07:29:17.094Z,74.06
2022-09-27T07:31:44.050Z,74.30
2022-09-27T07:34:11.491Z,77.07
2022-09-27T07:36:38.970Z,74.80
2022-09-27T07:39:06.160Z,80.71
2022-09-27T07:41:33.750Z,77.67
2022-09-27T07:44:00.952Z,76.74
2022-09-27T07:46:28.038Z,77.12
2022-09-27T07:48:54.938Z,77.96
2022-09-27T07:51:21.856Z,77.67
2022-09-27T07:53:48.726Z,78.37
2022-09-27T07:56:15.611Z,78.66
2022-09-27T07:58:43.328Z,80.37
2022-09-27T08:01:10.286Z,77.74
2022-09-27T08:03:38.117Z,79.10
2022-09-27T08:06:05.105Z,78.93
2022-09-27T08:08:32.117Z,77.41
2022-09-27T08:10:59.102Z,75.13
2022-09-27T08:13:26.207Z,72.79
2022-09-27T08:15:53.210Z,73.42
2022-09-27T08:18:24.099Z,75.47
2022-09-27T08:20:51.140Z,74.58
2022-09-27T08:23:18.171Z,76.25
2022-09-27T08:25:45.339Z,75.10
2022-09-27T08:28:12.278Z,74.20
2022-09-27T08:30:39.299Z,73.66
2022-09-27T08:33:06.267Z,78.06
2022-09-27T08:35:34.150Z,74.38
2022-09-27T08:38:02.331Z,72.00
2022-09-27T08:40:38.501Z,74.50
2022-09-27T08:43:19.040Z,70.57
2022-09-27T08:46:07.313Z,72.67
2022-09-27T08:48:36.195Z,75.69
2022-09-27T08:51:03.778Z,77.50
2022-09-27T08:53:55.454Z,77.22
2022-09-27T08:56:24.232Z,82.48
2022-09-27T08:59:07.770Z,76.38
2022-09-27T09:01:35.408Z,79.45
2022-09-27T09:04:12.916Z,73.91
2022-09-27T09:06:45.834Z,75.48
2022-09-27T09:09:18.690Z,74.49
2022-09-27T09:12:24.513Z,75.60
2022-09-27T09:14:54.301Z,75.57
2022-09-27T09:17:47.351Z,79.31
2022-09-27T09:20:36.520Z,74.47
2022-09-27T09:23:28.601Z,70.92
2022-09-27T09:26:32.101Z,77.10
2022-09-27T09:29:04.735Z,72.03
2022-09-27T09:31:48.794Z,71.09
2022-09-27T09:34:28.411Z,72.50
2022-09-27T09:37:11.017Z,74.12
2022-09-27T09:39:51.562Z,75.98
2022-09-27T09:42:50.489Z,74.11
2022-09-27T09:45:18.695Z,70.74
2022-09-27T09:48:15.448Z,71.54
2022-09-27T09:50:47.223Z,75.68
2022-09-27T09:53:20.850Z,72.24
2022-09-27T09:55:57.998Z,76.74
2022-09-27T09:58:26.898Z,73.68
2022-09-27T10:00:56.679Z,68.75
2022-09-27T10:03:24.849Z,70.30
2022-09-27T10:05:52.003Z,69.62
2022-09-27T10:08:23.347Z,67.42
2022-09-27T10:10:50.546Z,69.54
2022-09-27T10:13:19.717Z,67.21
2022-09-27T10:15:54.250Z,68.46
2022-09-27T10:18:21.419Z,68.23
2022-09-27T10:20:59.432Z,64.53
2022-09-27T10:23:26.745Z,65.98
2022-09-27T10:26:01.176Z,62.70
2022-09-27T10:28:33.946Z,63.92
2022-09-27T10:31:03.142Z,63.63
2022-09-27T10:33:31.832Z,65.24
2022-09-27T10:35:59.703Z,62.42
2022-09-27T10:38:37.003Z,64.28
2022-09-27T10:41:23.040Z,62.93
2022-09-27T10:43:49.971Z,62.67
2022-09-27T10:46:25.288Z,67.24
2022-09-27T10:49:28.183Z,67.23
2022-09-27T10:52:07.144Z,65.33
2022-09-27T10:54:36.812Z,66.87
2022-09-27T10:57:06.520Z,65.21
2022-09-27T10:59:40.343Z,63.73
2022-09-27T11:02:36.418Z,64.91
2022-09-27T11:05:06.639Z,61.76
2022-09-27T11:07:37.556Z,60.08
2022-09-27T11:10:22.926Z,60.40
2022-09-27T11:13:12.605Z,59.06
2022-09-27T11:16:15.151Z,61.10
2022-09-27T11:19:04.625Z,60.96
2022-09-27T11:21:50.394Z,59.41
2022-09-27T11:24:25.377Z,57.90
2022-09-27T11:27:16.156Z,57.77
2022-09-27T11:29:46.678Z,58.46
2022-09-27T11:32:35.570Z,58.21
2022-09-27T11:35:34.039Z,58.68
2022-09-27T11:38:10.449Z,56.46
2022-09-27T11:41:03.479Z,59.49
2022-09-27T11:43:32.939Z,58.29
2022-09-27T11:46:19.369Z,62.63
2022-09-27T11:49:28.975Z,63.27
2022-09-27T11:52:15.223Z,61.67
2022-09-27T11:54:58.171Z,60.59
2022-09-27T11:57:35.746Z,59.43
2022-09-27T12:00:02.507Z,62.44
2022-09-27T12:02:35.424Z,60.31
2022-09-27T12:05:17.695Z,62.51
2022-09-27T12:07:53.589Z,58.15
2022-09-27T12:10:22.732Z,62.05
2022-09-27T12:12:56.281Z,63.34
2022-09-27T12:15:35.332Z,60.99
2022-09-27T12:18:11.047Z,59.54
2022-09-27T12:20:38.323Z,62.28
2022-09-27T12:23:25.979Z,66.37
2022-09-27T12:26:02.344Z,65.19
2022-09-27T12:28:37.142Z,68.29
2022-09-27T12:31:28.353Z,68.53
2022-09-27T12:34:09.825Z,69.14
2022-09-27T12:36:42.793Z,69.53
2022-09-27T12:39:23.049Z,73.30
2022-09-27T12:42:02.213Z,71.02
2022-09-27T12:44:39.135Z,68.66
2022-09-27T12:47:42.312Z,71.59
2022-09-27T12:50:15.302Z,69.81
2022-09-27T12:52:45.129Z,69.09
2022-09-27T12:55:40.911Z,67.98
2022-09-27T12:58:54.606Z,65.87
2022-09-27T13:01:46.671Z,66.36
2022-09-27T13:04:22.276Z,64.13
2022-09-27T13:06:59.218Z,64.37
2022-09-27T13:09:46.588Z,60.22
2022-09-27T13:12:19.491Z,59.09
2022-09-27T13:15:08.177Z,57.87
2022-09-27T13:17:41.202Z,60.89
2022-09-27T13:20:33.073Z,62.52
2022-09-27T13:23:05.160Z,59.37
2022-09-27T13:25:56.424Z,60.00
2022-09-27T13:28:32.234Z,60.51
2022-09-27T13:31:12.822Z,60.73
2022-09-27T13:33:50.034Z,60.43
2022-09-27T13:36:16.867Z,60.60
2022-09-27T13:39:07.373Z,60.19
2022-09-27T13:41:43.349Z,61.99
2022-09-27T13:44:29.696Z,59.70
2022-09-27T13:47:28.641Z,60.05
2022-09-27T13:50:15.324Z,62.80
2022-09-27T13:52:45.000Z,62.17
2022-09-27T13:55:42.674Z,61.69
2022-09-27T13:58:17.485Z,60.31
2022-09-27T14:00:55.961Z,59.47
2022-09-27T14:03:39.130Z,60.41
2022-09-27T14:06:08.936Z,59.61
2022-09-27T14:08:44.359Z,60.01
2022-09-27T14:11:17.354Z,60.71
2022-09-27T14:13:45.855Z,58.85
2022-09-27T14:16:17.075Z,55.91
2022-09-27T14:18:50.929Z,56.37
2022-09-27T14:21:36.515Z,59.29
2022-09-27T14:24:29.882Z,59.55
2022-09-27T14:27:20.110Z,60.86
2022-09-27T14:29:50.017Z,58.82
2022-09-27T14:32:25.092Z,58.02
2022-09-27T14:35:32.492Z,60.56
2022-09-27T14:38:20.565Z,59.20
2022-09-27T14:40:53.498Z,59.81
2022-09-27T14:43:21.800Z,62.59
2022-09-27T14:45:51.743Z,63.04
2022-09-27T14:48:20.458Z,63.55
2022-09-27T14:51:06.211Z,62.95
2022-09-27T14:53:58.609Z,64.46
2022-09-27T14:56:37.921Z,64.89
2022-09-27T14:59:09.648Z,69.13
2022-09-27T15:01:39.531Z,71.55
2022-09-27T15:04:12.225Z,71.29
2022-09-27T15:06:39.426Z,71.20
2022-09-27T15:09:07.296Z,70.87
2022-09-27T15:11:34.942Z,72.05
2022-09-27T15:14:16.255Z,70.55
2022-09-27T15:16:45.529Z,72.88
2022-09-27T15:19:19.084Z,73.76
2022-09-27T15:21:46.134Z,72.40
2022-09-27T15:24:40.802Z,73.62
2022-09-27T15:27:22.217Z,74.14
2022-09-27T15:29:54.875Z,73.71
2022-09-27T15:32:31.077Z,74.98
2022-09-27T15:34:58.100Z,72.63
2022-09-27T15:37:35.992Z,70.42
2022-09-27T15:40:29.110Z,72.79
2022-09-27T15:43:01.556Z,73.39
2022-09-27T15:48:16.807Z,69.37
2022-09-27T15:50:43.981Z,70.36
2022-09-27T15:53:11.141Z,71.83
2022-09-27T15:55:43.664Z,69.69
2022-09-27T15:58:19.490Z,71.23
2022-09-27T16:01:02.753Z,71.29
2022-09-27T16:03:30.062Z,74.31
2022-09-27T16:05:57.953Z,73.41
2022-09-27T16:08:26.088Z,75.08
2022-09-27T16:10:57.708Z,73.30
2022-09-27T16:13:28.885Z,74.80
2022-09-27T16:15:59.408Z,75.02
2022-09-27T16:18:30.324Z,73.15
2022-09-27T16:20:58.656Z,75.05
2022-09-27T16:23:25.747Z,74.77
2022-09-27T16:25:53.744Z,75.69
2022-09-27T16:28:20.702Z,74.83
2022-09-27T16:30:48.339Z,70.71
2022-09-27T16:33:15.312Z,70.78
2022-09-27T16:35:42.256Z,71.01
2022-09-27T16:38:09.631Z,68.42
2022-09-27T16:40:37.570Z,69.67
2022-09-27T16:43:07.457Z,69.29
2022-09-27T16:45:35.894Z,68.51
2022-09-27T16:48:02.796Z,68.08
2022-09-27T16:50:48.224Z,69.25
2022-09-27T16:53:15.646Z,71.52
2022-09-27T16:55:42.577Z,71.97
2022-09-27T16:58:09.428Z,69.44
2022-09-27T17:00:36.601Z,68.45
2022-09-27T17:03:03.615Z,68.85
2022-09-27T17:05:31.930Z,65.49
2022-09-27T17:07:59.034Z,65.02
2022-09-27T17:10:25.923Z,67.42
2022-09-27T17:12:52.936Z,66.52
2022-09-27T17:15:19.799Z,65.42
2022-09-27T17:17:50.474Z,60.86
2022-09-27T17:20:17.931Z,58.32
2022-09-27T17:22:44.870Z,58.06
2022-09-27T17:25:11.800Z,55.34
2022-09-27T17:27:38.687Z,55.04
2022-09-27T17:30:07.060Z,55.53
2022-09-27T17:32:35.035Z,55.98
2022-09-27T17:35:02.864Z,54.28
2022-09-27T17:37:30.094Z,56.68
2022-09-27T17:39:57.725Z,56.12
2022-09-27T17:42:25.591Z,58.30
2022-09-27T17:44:52.724Z,60.57
2022-09-27T17:47:38.238Z,61.56
2022-09-27T17:50:23.793Z,61.69
2022-09-27T17:52:54.325Z,62.49
2022-09-27T17:55:21.968Z,63.90
2022-09-27T17:57:49.843Z,62.16
2022-09-27T18:00:17.999Z,65.13
2022-09-27T18:02:45.326Z,68.34
2022-09-27T18:05:12.527Z,68.24
2022-09-27T18:07:39.396Z,69.38
2022-09-27T18:10:06.796Z,69.55
2022-09-27T18:12:34.993Z,68.22
2022-09-27T18:15:02.736Z,65.64
2022-09-27T18:17:29.928Z,62.86
2022-09-27T18:19:57.180Z,67.14
2022-09-27T18:22:26.585Z,67.40
2022-09-27T18:24:53.451Z,66.37
2022-09-27T18:27:20.424Z,66.31
2022-09-27T18:29:47.339Z,65.64
2022-09-27T18:32:14.714Z,63.12
2022-09-27T18:34:41.674Z,67.09
2022-09-27T18:37:08.549Z,68.34
2022-09-27T18:39:35.503Z,64.75
2022-09-27T18:42:02.388Z,65.37
2022-09-27T18:44:29.268Z,64.74
2022-09-27T18:46:56.179Z,63.92
2022-09-27T18:49:26.365Z,65.12
2022-09-27T18:51:55.446Z,64.18
2022-09-27T18:54:22.825Z,68.26
2022-09-27T18:56:50.688Z,67.06
2022-09-27T18:59:19.863Z,64.75
2022-09-27T19:01:46.823Z,64.38
2022-09-27T19:04:20.356Z,62.84
2022-09-27T19:06:48.567Z,65.68
2022-09-27T19:09:15.536Z,62.29
2022-09-27T19:11:45.179Z,63.66
2022-09-27T19:14:17.411Z,61.92
2022-09-27T19:16:47.197Z,63.13
2022-09-27T19:19:16.821Z,62.90
2022-09-27T19:21:44.027Z,61.22
2022-09-27T19:24:11.921Z,61.01
2022-09-27T19:26:39.016Z,61.61
2022-09-27T19:29:06.705Z,61.50
2022-09-27T19:31:35.867Z,60.97
2022-09-27T19:34:03.236Z,59.47
2022-09-27T19:36:30.890Z,59.25
2022-09-27T19:39:02.350Z,57.93
2022-09-27T19:41:29.731Z,58.19
2022-09-27T19:43:57.142Z,55.90
2022-09-27T19:46:25.829Z,55.38
2022-09-27T19:48:53.267Z,54.81
2022-09-27T19:51:22.165Z,54.33
2022-09-27T19:53:49.953Z,53.92
2022-09-27T19:56:17.142Z,57.07
2022-09-27T19:58:44.348Z,55.97
2022-09-27T20:01:22.312Z,57.30
2022-09-27T20:03:51.151Z,59.50
2022-09-27T20:06:19.820Z,57.64
2022-09-27T20:08:48.121Z,56.59
2022-09-27T20:11:17.064Z,55.94
2022-09-27T20:13:44.083Z,56.29
2022-09-27T20:16:13.581Z,58.22
2022-09-27T20:18:42.433Z,57.80
2022-09-27T20:21:09.688Z,54.82
2022-09-27T20:23:36.776Z,52.98
2022-09-27T20:26:07.659Z,52.38
2022-09-27T20:28:35.473Z,54.41
2022-09-27T20:31:04.383Z,52.67
2022-09-27T20:33:46.966Z,58.22
2022-09-27T20:36:25.288Z,55.84
2022-09-27T20:39:03.253Z,56.02
2022-09-27T20:41:32.658Z,54.89
2022-09-27T20:44:02.141Z,51.30
2022-09-27T20:46:29.275Z,50.95
2022-09-27T20:48:58.996Z,51.43
2022-09-27T20:51:27.412Z,50.82
2022-09-27T20:53:54.564Z,49.47
2022-09-27T20:56:27.265Z,49.91
2022-09-27T20:58:55.496Z,49.27
2022-09-27T21:01:23.558Z,50.23
2022-09-27T21:03:57.375Z,50.11
2022-09-27T21:06:24.578Z,49.74
2022-09-27T21:08:52.033Z,50.26
2022-09-27T21:11:19.465Z,48.64
2022-09-27T21:13:47.247Z,49.66
2022-09-27T21:16:16.256Z,48.79
2022-09-27T21:18:43.705Z,48.31
2022-09-27T21:21:12.741Z,48.21
2022-09-27T21:23:44.606Z,49.38
2022-09-27T21:26:17.204Z,51.12
2022-09-27T21:28:49.030Z,51.03
2022-09-27T21:31:22.503Z,51.15
2022-09-27T21:33:54.191Z,49.88
2022-09-27T21:36:25.734Z,48.31
2022-09-27T21:38:52.630Z,47.01
2022-09-27T21:41:19.497Z,47.38
2022-09-27T21:43:47.949Z,48.50
2022-09-27T21:46:26.317Z,48.37
2022-09-27T21:48:55.889Z,47.25
2022-09-27T21:51:34.013Z,48.42
2022-09-27T21:54:02.485Z,47.58
2022-09-27T21:56:35.114Z,49.24
2022-09-27T21:59:02.334Z,49.06
2022-09-27T22:01:31.459Z,49.36
2022-09-27T22:03:59.147Z,52.50
2022-09-27T22:06:36.855Z,51.54
2022-09-27T22:09:06.224Z,50.31
2022-09-27T22:11:38.963Z,50.12
2022-09-27T22:14:09.709Z,50.81
2022-09-27T22:16:36.769Z,50.08
2022-09-27T22:19:04.583Z,49.96
2022-09-27T22:21:34.897Z,48.57
2022-09-27T22:24:07.782Z,48.17
2022-09-27T22:26:37.216Z,49.26
2022-09-27T22:29:05.043Z,49.46
2022-09-27T22:31:32.181Z,49.37
2022-09-27T22:34:01.277Z,49.08
2022-09-27T22:36:28.846Z,49.67
2022-09-27T22:38:55.973Z,50.76
2022-09-27T22:41:23.572Z,48.89
2022-09-27T22:43:51.986Z,47.81
2022-09-27T22:46:19.589Z,47.60
2022-09-27T22:48:46.495Z,47.35
2022-09-27T22:51:13.487Z,47.51
2022-09-27T22:53:40.423Z,47.66
2022-09-27T22:56:10.765Z,45.84
2022-09-27T22:58:38.006Z,48.88
2022-09-27T23:01:20.350Z,48.94
2022-09-27T23:03:48.606Z,49.15
2022-09-27T23:06:17.450Z,47.63
2022-09-27T23:08:44.601Z,48.21
2022-09-27T23:11:17.771Z,48.47
2022-09-27T23:13:45.275Z,46.52
2022-09-27T23:16:15.045Z,48.30
2022-09-27T23:18:42.451Z,47.56
2022-09-27T23:21:11.369Z,46.31
2022-09-27T23:23:45.010Z,46.24
2022-09-27T23:26:16.529Z,46.84
2022-09-27T23:28:43.908Z,47.39
2022-09-27T23:31:13.728Z,48.08
2022-09-27T23:33:42.610Z,49.97
2022-09-27T23:36:10.830Z,49.85
2022-09-27T23:38:40.339Z,50.57
2022-09-27T23:41:08.472Z,50.93
2022-09-27T23:43:36.456Z,51.17
2022-09-27T23:46:04.715Z,52.79
2022-09-27T23:48:31.658Z,54.00
2022-09-27T23:50:58.490Z,53.05
2022-09-27T23:53:25.403Z,52.67
2022-09-27T23:56:08.811Z,52.90
2022-09-27T23:58:40.512Z,52.45
